Time;durP1;ratioP1;P1;durP2;ratioP2;P2;SDS_P1;SDS_P2;PMS_P1;PMS_P2;Temp;Humidity;BMP_temperature;BMP_pressure;BME280_temperature;BME280_humidity;BME280_pressure;Samples;Min_cycle;Max_cycle;Signal;HPM_P1;HPM_P2
2021/12/08 00:00:09;;;;;;;52.22;27.05;;;;;;;0.34;99.75;100109.44;5062008;28;20139;-64
2021/12/08 00:02:36;;;;;;;51.03;29.17;;;;;;;0.29;99.71;100103.53;5062491;28;20131;-64
2021/12/08 00:05:05;;;;;;;57.08;30.90;;;;;;;0.30;100.00;100100.03;5065849;28;20049;-64
2021/12/08 00:07:33;;;;;;;56.80;28.88;;;;;;;0.26;99.62;100106.19;5066147;28;20056;-65
2021/12/08 00:13:04;;;;;;;60.97;28.38;;;;;;;0.12;100.00;100105.69;5054913;28;20462;-64
2021/12/08 00:15:46;;;;;;;53.90;28.08;;;;;;;0.29;99.65;100100.94;5065241;28;20517;-64
2021/12/08 00:18:17;;;;;;;52.67;27.80;;;;;;;0.25;99.50;100096.72;5067191;28;20052;-64
2021/12/08 00:20:46;;;;;;;52.05;26.55;;;;;;;0.15;99.56;100100.44;5065174;28;20146;-64
2021/12/08 00:23:15;;;;;;;51.92;27.38;;;;;;;0.07;99.64;100104.94;5065181;28;20052;-65
2021/12/08 00:25:42;;;;;;;52.13;28.15;;;;;;;0.08;100.00;100104.06;5065935;28;20063;-64
2021/12/08 00:28:10;;;;;;;54.72;29.25;;;;;;;0.15;100.00;100093.53;5064867;28;20056;-64
2021/12/08 00:30:39;;;;;;;56.58;29.13;;;;;;;0.14;99.40;100098.75;5063402;28;20415;-64
2021/12/08 00:33:07;;;;;;;53.47;29.00;;;;;;;0.10;100.00;100097.97;5064122;28;20049;-64
2021/12/08 00:35:35;;;;;;;54.03;28.10;;;;;;;0.14;100.00;100083.22;5063162;28;20139;-64
2021/12/08 00:38:03;;;;;;;57.05;29.55;;;;;;;0.17;99.78;100089.16;5064407;28;20044;-64
2021/12/08 00:40:30;;;;;;;51.15;28.33;;;;;;;0.24;99.63;100095.88;5059299;28;20040;-63
2021/12/08 00:42:58;;;;;;;51.55;28.63;;;;;;;0.23;99.30;100083.00;5066378;28;20523;-62
2021/12/08 00:45:25;;;;;;;52.72;28.08;;;;;;;0.29;98.90;100067.28;5063655;28;20080;-65
2021/12/08 00:47:54;;;;;;;51.40;28.25;;;;;;;0.25;98.92;100070.84;5066997;28;20131;-64
2021/12/08 00:50:24;;;;;;;49.38;27.55;;;;;;;0.08;98.21;100078.19;5062432;28;20052;-68
2021/12/08 00:52:51;;;;;;;59.95;27.52;;;;;;;0.14;98.91;100071.13;5063180;28;20098;-64
2021/12/08 00:55:20;;;;;;;48.97;28.15;;;;;;;0.23;100.00;100067.47;5063911;28;20131;-65
2021/12/08 00:57:47;;;;;;;56.67;27.75;;;;;;;0.20;98.61;100055.44;5050234;28;20072;-64
2021/12/08 01:00:23;;;;;;;49.03;27.98;;;;;;;-0.01;98.79;100053.38;5064412;28;20128;-65
2021/12/08 01:02:51;;;;;;;53.10;28.45;;;;;;;-0.07;98.89;100041.44;5048789;28;20078;-64
2021/12/08 01:05:20;;;;;;;57.00;28.23;;;;;;;0.00;99.90;100039.56;5043497;28;20055;-64
2021/12/08 01:07:48;;;;;;;55.30;29.73;;;;;;;0.04;99.99;100035.13;5066703;28;20044;-64
2021/12/08 01:10:19;;;;;;;56.50;28.25;;;;;;;0.11;100.00;100032.38;5043188;28;20139;-65
2021/12/08 01:13:04;;;;;;;57.58;29.10;;;;;;;0.09;99.92;100033.28;5065337;28;20362;-64
2021/12/08 01:15:31;;;;;;;52.38;28.10;;;;;;;0.09;100.00;100013.47;5064995;28;20045;-63
2021/12/08 01:17:58;;;;;;;55.17;29.08;;;;;;;0.13;100.00;100016.78;5049445;28;20163;-63
2021/12/08 01:20:25;;;;;;;55.15;31.15;;;;;;;0.02;100.00;100014.50;5063047;28;20584;-63
2021/12/08 01:22:52;;;;;;;52.80;28.48;;;;;;;0.02;100.00;100013.66;5068346;28;20055;-63
2021/12/08 01:25:20;;;;;;;52.15;27.10;;;;;;;0.10;100.00;99999.63;5062621;28;20052;-63
2021/12/08 01:27:47;;;;;;;53.08;28.65;;;;;;;0.02;99.93;100006.72;5064488;28;20127;-64
2021/12/08 01:30:14;;;;;;;52.47;27.60;;;;;;;0.07;99.91;99999.69;5039495;28;20139;-62
2021/12/08 01:32:41;;;;;;;53.88;27.67;;;;;;;-0.01;99.67;99993.84;5059704;28;20892;-64
2021/12/08 01:35:10;;;;;;;54.33;27.90;;;;;;;0.00;100.00;99980.06;5044742;28;20056;-64
2021/12/08 01:37:38;;;;;;;51.58;27.38;;;;;;;0.06;99.27;99982.47;5048232;28;20052;-64
2021/12/08 01:40:08;;;;;;;57.70;28.75;;;;;;;-0.02;99.99;99985.25;5062937;28;20056;-64
2021/12/08 01:42:42;;;;;;;56.55;29.17;;;;;;;-0.05;100.00;99980.16;5066720;28;20051;-64
2021/12/08 01:48:03;;;;;;;56.47;31.42;;;;;;;0.10;99.47;99971.16;5061686;28;20049;-64
2021/12/08 01:50:30;;;;;;;51.42;26.65;;;;;;;0.03;99.48;99973.94;5063049;28;20052;-65
2021/12/08 01:52:57;;;;;;;49.92;27.83;;;;;;;-0.06;99.46;99968.09;5065944;28;20051;-64
2021/12/08 01:55:24;;;;;;;51.90;27.25;;;;;;;-0.07;99.74;99968.16;5062564;28;20071;-64
2021/12/08 01:57:51;;;;;;;57.50;29.35;;;;;;;-0.02;100.00;99959.38;5064623;28;20087;-65
2021/12/08 02:00:39;;;;;;;60.15;30.60;;;;;;;0.05;100.00;99952.31;5062984;28;20119;-65
2021/12/08 02:03:06;;;;;;;55.15;29.08;;;;;;;-0.01;99.55;99955.88;5048328;28;20124;-65
2021/12/08 02:05:34;;;;;;;52.22;28.67;;;;;;;0.01;99.22;99950.69;5064450;28;20053;-65
2021/12/08 02:08:04;;;;;;;54.13;27.88;;;;;;;-0.06;98.89;99943.97;5066058;28;20396;-65
2021/12/08 02:10:31;;;;;;;51.00;26.90;;;;;;;-0.08;99.61;99938.00;5027397;28;20044;-64
2021/12/08 02:12:58;;;;;;;50.97;27.13;;;;;;;-0.01;100.00;99932.59;5065813;28;20112;-64
2021/12/08 02:15:25;;;;;;;52.35;25.17;;;;;;;-0.01;99.90;99936.94;5063805;28;20174;-64
2021/12/08 02:17:54;;;;;;;50.28;26.98;;;;;;;-0.16;99.45;99924.41;5065508;28;20079;-65
2021/12/08 02:20:23;;;;;;;48.15;25.83;;;;;;;-0.18;100.00;99928.75;5060482;28;20048;-64
2021/12/08 02:22:51;;;;;;;46.28;26.33;;;;;;;-0.19;99.65;99933.09;5051303;28;20054;-64
2021/12/08 02:25:22;;;;;;;50.08;27.50;;;;;;;-0.06;99.45;99921.53;5067856;28;20071;-63
2021/12/08 02:27:50;;;;;;;51.78;25.90;;;;;;;-0.14;99.63;99917.44;5070473;28;20052;-65
2021/12/08 02:47:12;;;;;;;47.88;24.13;;;;;;;-0.06;99.00;99911.19;5012341;28;20164;-64
2021/12/08 02:49:39;;;;;;;47.60;24.25;;;;;;;-0.09;98.43;99903.53;5033224;28;20051;-64
2021/12/08 02:52:08;;;;;;;44.53;22.77;;;;;;;-0.16;98.59;99906.31;5058247;28;20076;-64
2021/12/08 02:54:53;;;;;;;45.00;24.27;;;;;;;-0.22;98.68;99912.50;5065427;28;20041;-64
2021/12/08 02:57:25;;;;;;;42.83;23.90;;;;;;;-0.24;99.00;99910.81;5073023;28;20387;-64
2021/12/08 02:59:52;;;;;;;44.90;24.40;;;;;;;-0.22;99.05;99904.75;5063376;28;20056;-65
2021/12/08 03:02:19;;;;;;;48.55;25.17;;;;;;;-0.18;99.23;99911.53;5050425;28;20611;-64
2021/12/08 03:04:47;;;;;;;47.15;24.70;;;;;;;-0.18;98.20;99908.06;5066301;28;20493;-64
2021/12/08 03:07:14;;;;;;;42.58;23.45;;;;;;;-0.19;97.78;99906.38;5069904;28;20103;-65
2021/12/08 03:09:41;;;;;;;47.25;25.95;;;;;;;-0.20;98.99;99905.53;5065486;28;20057;-64
2021/12/08 03:12:08;;;;;;;46.60;24.83;;;;;;;-0.11;98.84;99900.13;5063817;28;20436;-64
2021/12/08 03:14:36;;;;;;;40.50;23.30;;;;;;;-0.18;97.68;99895.13;5064613;28;20361;-64
2021/12/08 03:17:06;;;;;;;45.83;23.88;;;;;;;-0.19;98.54;99886.53;5072631;28;20056;-66
2021/12/08 03:19:33;;;;;;;40.40;23.00;;;;;;;-0.16;97.90;99889.03;5039605;28;20055;-65
2021/12/08 03:22:08;;;;;;;46.80;24.58;;;;;;;-0.16;98.21;99888.19;5042410;28;20123;-64
2021/12/08 03:24:38;;;;;;;45.35;23.90;;;;;;;-0.19;98.17;99881.34;5065324;28;20044;-64
2021/12/08 03:27:12;;;;;;;44.50;24.42;;;;;;;-0.21;97.79;99890.91;5050439;28;20040;-64
2021/12/08 03:30:10;;;;;;;44.67;24.38;;;;;;;-0.15;98.42;99889.88;5062233;28;20149;-65
2021/12/08 03:32:39;;;;;;;42.67;24.52;;;;;;;-0.16;98.99;99889.03;5065845;28;20107;-65
2021/12/08 03:35:10;;;;;;;50.08;26.15;;;;;;;-0.02;97.79;99881.75;5047794;28;20044;-64
2021/12/08 03:37:42;;;;;;;42.47;24.25;;;;;;;-0.11;97.41;99881.16;5057292;28;20048;-63
2021/12/08 03:40:16;;;;;;;41.85;24.17;;;;;;;-0.18;97.51;99889.97;5059469;28;20084;-64
2021/12/08 03:42:44;;;;;;;44.92;24.95;;;;;;;-0.16;97.61;99878.69;5070129;28;20056;-65
2021/12/08 03:45:15;;;;;;;43.00;24.35;;;;;;;-0.10;98.03;99877.69;5064049;28;20128;-64
2021/12/08 03:47:46;;;;;;;44.95;24.33;;;;;;;-0.07;97.05;99867.25;5045220;28;20053;-64
2021/12/08 03:50:16;;;;;;;45.90;26.67;;;;;;;-0.14;97.60;99868.28;5066635;28;20457;-64
2021/12/08 03:52:43;;;;;;;44.45;25.75;;;;;;;-0.20;97.66;99873.66;5068072;28;20058;-64
2021/12/08 03:55:14;;;;;;;44.85;25.33;;;;;;;-0.16;97.85;99868.34;5046899;28;20050;-64
2021/12/08 03:57:42;;;;;;;44.55;26.90;;;;;;;-0.14;98.16;99876.06;5068636;28;20146;-64
2021/12/08 04:00:12;;;;;;;43.80;25.08;;;;;;;-0.14;97.83;99879.50;5065709;28;20049;-64
2021/12/08 04:02:40;;;;;;;43.17;24.95;;;;;;;-0.02;97.94;99876.56;5066606;28;20380;-64
2021/12/08 04:05:08;;;;;;;46.80;27.95;;;;;;;-0.05;97.32;99886.16;5064055;28;20117;-64
2021/12/08 04:07:42;;;;;;;43.33;24.02;;;;;;;-0.08;97.36;99874.16;5066829;28;20051;-64
2021/12/08 04:10:16;;;;;;;48.58;25.80;;;;;;;-0.05;97.74;99866.31;5047977;28;20056;-64
2021/12/08 04:12:50;;;;;;;45.25;26.38;;;;;;;-0.03;97.02;99874.88;5066423;28;20071;-64
2021/12/08 04:15:21;;;;;;;46.67;26.52;;;;;;;-0.24;96.81;99854.78;5064421;28;20033;-64
2021/12/08 04:17:50;;;;;;;49.17;26.60;;;;;;;-0.28;97.99;99848.81;5046129;28;20052;-64
2021/12/08 04:20:26;;;;;;;47.70;27.17;;;;;;;-0.23;97.88;99845.28;5066650;28;20050;-64
2021/12/08 04:22:55;;;;;;;46.92;27.17;;;;;;;-0.33;97.54;99857.59;5069019;28;20601;-63
2021/12/08 04:25:27;;;;;;;50.05;27.70;;;;;;;-0.38;98.35;99860.31;5064446;28;20045;-63
2021/12/08 04:27:57;;;;;;;48.83;27.02;;;;;;;-0.25;98.74;99858.25;5066367;28;20045;-63
2021/12/08 04:30:35;;;;;;;47.40;26.67;;;;;;;-0.19;98.74;99863.25;5064714;28;20064;-63
2021/12/08 04:33:06;;;;;;;51.47;27.42;;;;;;;-0.23;98.83;99853.03;5066345;28;20118;-63
2021/12/08 04:35:33;;;;;;;47.53;27.63;;;;;;;-0.14;98.69;99851.03;5060746;28;20128;-63
2021/12/08 04:38:05;;;;;;;48.42;26.65;;;;;;;-0.17;98.29;99853.72;5059936;28;21057;-63
2021/12/08 04:40:50;;;;;;;44.72;26.10;;;;;;;-0.25;98.21;99847.91;5057515;28;20053;-63
2021/12/08 04:43:31;;;;;;;53.63;26.92;;;;;;;-0.30;97.82;99852.34;5047932;28;20507;-63
2021/12/08 04:51:43;;;;;;;53.28;29.38;;;;;;;-0.14;98.76;99856.22;5066301;28;20063;-63
2021/12/08 05:05:37;;;;;;;47.35;26.58;;;;;;;-0.28;98.36;99869.50;5064894;28;20044;-64
2021/12/08 05:08:15;;;;;;;48.70;27.92;;;;;;;-0.19;98.06;99878.78;5066494;28;20049;-63
2021/12/08 05:10:43;;;;;;;46.92;25.25;;;;;;;-0.28;98.24;99871.25;5046857;28;20059;-63
2021/12/08 05:13:12;;;;;;;49.25;26.88;;;;;;;-0.30;98.29;99865.28;5066001;28;20412;-63
2021/12/08 05:15:52;;;;;;;47.15;26.67;;;;;;;-0.21;98.63;99874.53;5064427;28;20057;-63
2021/12/08 05:18:29;;;;;;;47.33;26.40;;;;;;;-0.21;98.43;99877.97;5050363;28;20604;-63
2021/12/08 05:21:03;;;;;;;44.28;26.35;;;;;;;-0.15;98.03;99871.78;5066201;28;20127;-65
2021/12/08 05:23:39;;;;;;;54.35;27.30;;;;;;;-0.22;98.25;99870.28;5059893;28;20052;-64
2021/12/08 05:26:12;;;;;;;46.83;27.13;;;;;;;-0.18;98.37;99872.72;5024273;28;20044;-63
2021/12/08 05:28:42;;;;;;;48.00;26.77;;;;;;;-0.06;97.65;99869.78;5063286;28;20067;-64
2021/12/08 05:31:17;;;;;;;47.75;25.65;;;;;;;-0.15;97.07;99858.84;5062950;28;20133;-64
2021/12/08 05:33:45;;;;;;;42.17;24.73;;;;;;;-0.18;97.95;99862.38;5063961;28;20044;-64
2021/12/08 05:36:14;;;;;;;44.13;25.63;;;;;;;-0.20;97.84;99863.31;5061682;28;20056;-64
2021/12/08 05:38:43;;;;;;;48.17;25.90;;;;;;;-0.29;97.77;99852.31;5067048;28;20040;-64
2021/12/08 05:41:13;;;;;;;46.17;25.20;;;;;;;-0.31;98.50;99866.19;5060907;28;20048;-63
2021/12/08 05:43:41;;;;;;;47.15;25.27;;;;;;;-0.45;97.58;99863.09;5060995;28;20141;-63
2021/12/08 05:46:10;;;;;;;45.40;24.77;;;;;;;-0.61;97.63;99849.72;5043219;28;20052;-64
2021/12/08 05:48:37;;;;;;;49.63;26.52;;;;;;;-0.63;97.85;99843.72;5062421;28;20183;-64
2021/12/08 05:51:26;;;;;;;46.60;25.73;;;;;;;-0.69;98.19;99843.91;5059880;28;20053;-64
2021/12/08 05:53:59;;;;;;;49.58;26.10;;;;;;;-0.76;98.08;99850.97;5039083;28;20048;-64
2021/12/08 05:56:27;;;;;;;51.00;27.38;;;;;;;-0.69;99.87;99842.16;5040023;28;20045;-63
2021/12/08 05:58:59;;;;;;;52.42;27.65;;;;;;;-0.72;100.00;99855.19;5045512;28;20425;-64
2021/12/08 06:01:26;;;;;;;50.60;27.10;;;;;;;-0.70;100.00;99855.13;5060927;28;20056;-64
2021/12/08 06:03:54;;;;;;;47.13;26.45;;;;;;;-0.54;100.00;99859.00;5062761;28;20119;-64
2021/12/08 06:06:23;;;;;;;54.55;27.38;;;;;;;-0.56;100.00;99848.72;5029996;28;20059;-64
2021/12/08 06:08:51;;;;;;;48.60;26.42;;;;;;;-0.67;100.00;99853.31;5043307;28;20393;-64
2021/12/08 06:11:24;;;;;;;47.35;24.90;;;;;;;-0.68;100.00;99853.34;5063165;28;20146;-64
2021/12/08 06:13:53;;;;;;;48.83;25.63;;;;;;;-0.68;100.00;99854.19;5045309;28;20052;-64
2021/12/08 06:16:21;;;;;;;50.85;27.27;;;;;;;-0.63;100.00;99851.47;5060427;28;20044;-64
2021/12/08 06:18:52;;;;;;;49.78;26.40;;;;;;;-0.58;100.00;99860.84;5042930;28;20051;-64
2021/12/08 06:21:23;;;;;;;46.67;25.58;;;;;;;-0.65;100.00;99858.44;5058870;28;20048;-64
2021/12/08 06:23:50;;;;;;;51.50;27.45;;;;;;;-0.57;100.00;99859.09;5064583;28;20052;-64
2021/12/08 06:26:21;;;;;;;54.42;27.10;;;;;;;-0.54;100.00;99861.59;5026625;28;20047;-64
2021/12/08 06:28:49;;;;;;;49.47;25.92;;;;;;;-0.66;100.00;99869.69;5061833;28;20071;-63
2021/12/08 06:31:17;;;;;;;49.55;26.25;;;;;;;-0.62;100.00;99864.41;5058560;28;20067;-64
2021/12/08 06:33:44;;;;;;;52.13;26.95;;;;;;;-0.47;100.00;99877.81;5061642;28;20049;-64
2021/12/08 06:36:16;;;;;;;54.90;28.30;;;;;;;-0.41;100.00;99865.56;5039467;28;20074;-64
2021/12/08 06:38:48;;;;;;;49.40;26.52;;;;;;;-0.58;100.00;99855.69;5059024;28;20169;-64
2021/12/08 06:41:23;;;;;;;47.30;25.33;;;;;;;-0.66;100.00;99857.59;5028921;28;20764;-64
2021/12/08 06:43:55;;;;;;;50.10;26.90;;;;;;;-0.72;100.00;99860.34;5046869;28;20134;-64
2021/12/08 06:46:23;;;;;;;49.83;27.13;;;;;;;-0.67;100.00;99855.06;5050407;28;20521;-64
2021/12/08 06:48:54;;;;;;;53.50;26.23;;;;;;;-0.69;99.61;99851.66;5050797;28;20110;-63
2021/12/08 06:51:29;;;;;;;55.38;27.50;;;;;;;-0.80;99.50;99860.53;5025574;28;20781;-64
2021/12/08 06:54:03;;;;;;;54.20;27.60;;;;;;;-0.87;99.93;99876.22;5044724;28;20060;-62
2021/12/08 06:56:34;;;;;;;56.75;27.90;;;;;;;-0.84;99.10;99879.56;5047520;28;20127;-64
2021/12/08 06:59:08;;;;;;;59.22;28.23;;;;;;;-0.83;99.58;99876.09;5052091;28;20052;-63
2021/12/08 07:01:55;;;;;;;56.53;27.83;;;;;;;-0.98;100.00;99876.47;5053064;28;20061;-64
2021/12/08 07:04:33;;;;;;;56.05;29.48;;;;;;;-0.99;100.00;99879.97;5048464;28;20056;-64
2021/12/08 07:07:17;;;;;;;55.85;29.60;;;;;;;-0.95;100.00;99880.72;5053908;28;20061;-63
2021/12/08 07:09:44;;;;;;;59.50;29.33;;;;;;;-0.94;100.00;99875.53;5053036;28;20139;-64
2021/12/08 07:12:25;;;;;;;64.13;29.80;;;;;;;-0.98;100.00;99880.81;5057622;28;20144;-64
2021/12/08 07:14:56;;;;;;;64.00;29.23;;;;;;;-1.00;100.00;99867.91;5036396;28;20057;-64
2021/12/08 07:17:27;;;;;;;58.38;30.73;;;;;;;-1.05;100.00;99873.19;5038857;28;20083;-62
2021/12/08 07:20:13;;;;;;;58.80;27.90;;;;;;;-1.03;100.00;99866.25;5053134;28;20505;-63
2021/12/08 07:22:45;;;;;;;62.45;30.00;;;;;;;-0.98;100.00;99860.97;5058338;28;20485;-64
2021/12/08 07:25:15;;;;;;;58.17;29.58;;;;;;;-0.94;100.00;99856.59;5054395;28;20056;-64
2021/12/08 07:27:42;;;;;;;57.42;28.10;;;;;;;-0.93;100.00;99853.97;5057499;28;20132;-64
2021/12/08 07:30:15;;;;;;;62.60;30.80;;;;;;;-0.88;100.00;99854.69;5034063;28;20151;-64
2021/12/08 07:32:42;;;;;;;60.45;29.75;;;;;;;-0.78;100.00;99847.56;5037533;28;20053;-64
2021/12/08 07:35:14;;;;;;;60.60;29.15;;;;;;;-0.84;99.75;99839.97;5035693;28;20824;-64
2021/12/08 07:37:41;;;;;;;55.63;27.45;;;;;;;-0.83;99.63;99839.06;5057491;28;21218;-64
2021/12/08 07:40:11;;;;;;;60.97;29.30;;;;;;;-0.86;99.74;99842.56;5032457;28;20131;-63
2021/12/08 07:42:47;;;;;;;65.10;28.83;;;;;;;-0.89;100.00;99842.66;5056828;28;20372;-64
2021/12/08 07:45:16;;;;;;;;;;;;;;;-0.89;100.00;99845.25;5054890;28;20052;-63
2021/12/08 07:47:45;;;;;;;64.65;28.48;;;;;;;-0.73;99.99;99840.53;5056752;28;20633;-64
2021/12/08 07:50:30;;;;;;;61.65;30.15;;;;;;;-0.74;99.69;99843.16;5032282;28;20757;-64
2021/12/08 07:52:58;;;;;;;62.00;29.93;;;;;;;-0.68;99.48;99845.59;5058184;28;20071;-63
2021/12/08 07:55:32;;;;;;;60.55;29.27;;;;;;;-0.70;98.79;99843.06;5054791;28;20554;-64
2021/12/08 07:58:00;;;;;;;76.18;31.17;;;;;;;-0.65;99.38;99833.44;5057029;28;20143;-65
2021/12/08 08:00:32;;;;;;;72.63;30.60;;;;;;;-0.54;98.53;99830.56;5033951;28;20106;-63
2021/12/08 08:03:00;;;;;;;59.08;28.77;;;;;;;-0.50;98.52;99827.00;5037507;28;20207;-64
2021/12/08 08:05:28;;;;;;;58.35;27.50;;;;;;;-0.36;97.97;99824.06;5019955;28;20052;-63
2021/12/08 08:07:58;;;;;;;62.83;29.85;;;;;;;-0.36;97.60;99824.06;5058199;28;20572;-64
2021/12/08 08:10:27;;;;;;;61.30;29.45;;;;;;;-0.42;97.73;99825.06;5033766;28;20075;-63
2021/12/08 08:13:00;;;;;;;65.00;28.45;;;;;;;-0.39;98.37;99824.16;5057131;28;20060;-63
2021/12/08 08:15:30;;;;;;;64.53;30.58;;;;;;;-0.41;98.12;99824.19;5056231;28;20059;-64
2021/12/08 08:18:00;;;;;;;63.13;30.58;;;;;;;-0.37;97.61;99830.13;5055516;28;20920;-63
2021/12/08 08:20:31;;;;;;;60.58;29.38;;;;;;;-0.27;97.48;99828.97;5033897;28;20048;-63
2021/12/08 08:22:59;;;;;;;69.07;32.63;;;;;;;-0.12;97.23;99833.75;5058479;28;20596;-64
2021/12/08 08:25:32;;;;;;;71.15;29.83;;;;;;;-0.19;96.44;99827.03;5053369;28;20106;-64
2021/12/08 08:28:01;;;;;;;70.50;30.30;;;;;;;-0.09;96.46;99830.22;5057890;28;20186;-64
2021/12/08 08:30:36;;;;;;;61.67;28.90;;;;;;;-0.10;96.06;99825.94;5055141;28;20066;-64
2021/12/08 08:33:04;;;;;;;56.83;26.60;;;;;;;-0.20;96.41;99825.34;5058034;28;20054;-64
2021/12/08 08:35:50;;;;;;;65.70;31.00;;;;;;;-0.14;96.32;99827.75;5036101;28;20766;-63
2021/12/08 08:38:20;;;;;;;;;;;;;;;-0.10;96.16;99825.94;5054587;28;20063;-64
2021/12/08 08:40:53;;;;;;;66.38;29.58;;;;;;;-0.10;96.37;99831.94;5054818;28;19928;-63
2021/12/08 08:43:21;;;;;;;59.13;28.80;;;;;;;-0.07;95.93;99818.94;5057169;28;21368;-63
2021/12/08 08:46:02;;;;;;;65.97;28.92;;;;;;;0.02;95.36;99829.94;5054101;28;20051;-63
2021/12/08 08:48:38;;;;;;;56.10;26.38;;;;;;;-0.02;95.76;99832.59;5035445;28;20187;-63
2021/12/08 08:51:13;;;;;;;65.50;29.90;;;;;;;0.08;94.46;99827.16;5055437;28;20050;-64
2021/12/08 08:53:43;;;;;;;63.47;29.67;;;;;;;-0.04;94.86;99824.03;5055839;28;20051;-64
2021/12/08 08:56:19;;;;;;;61.05;28.20;;;;;;;-0.14;95.28;99820.00;5053533;28;20068;-64
2021/12/08 08:58:51;;;;;;;57.40;27.88;;;;;;;-0.11;95.21;99817.31;5050855;28;20159;-64
2021/12/08 09:01:26;;;;;;;65.25;30.52;;;;;;;-0.11;95.22;99819.06;5050082;28;20060;-62
2021/12/08 09:04:02;;;;;;;62.55;30.40;;;;;;;-0.09;94.54;99814.69;5034892;28;20095;-63
2021/12/08 09:06:32;;;;;;;66.30;28.17;;;;;;;-0.15;94.73;99812.28;5054081;28;20147;-63
2021/12/08 09:09:06;;;;;;;59.47;26.60;;;;;;;-0.08;94.69;99803.47;5052359;28;20056;-63
2021/12/08 09:11:49;;;;;;;56.83;27.70;;;;;;;0.06;94.75;99801.31;5055113;28;20222;-64
2021/12/08 09:14:22;;;;;;;60.45;27.20;;;;;;;0.03;94.68;99796.22;5052568;28;20079;-64
2021/12/08 09:17:08;;;;;;;59.58;27.73;;;;;;;0.14;93.52;99808.88;5036116;28;20149;-64
2021/12/08 09:19:40;;;;;;;;;;;;;;;0.22;93.46;99796.53;5021852;28;20123;-64
2021/12/08 09:22:29;;;;;;;64.60;28.95;;;;;;;0.12;92.81;99793.38;5053613;28;19955;-64
2021/12/08 09:25:07;;;;;;;63.35;29.67;;;;;;;0.15;93.40;99795.03;5052697;28;20059;-64
2021/12/08 09:27:43;;;;;;;64.78;28.25;;;;;;;0.21;93.60;99800.03;5053216;28;20048;-64
2021/12/08 09:30:36;;;;;;;61.55;27.42;;;;;;;0.18;93.16;99797.50;5050089;28;21225;-64
2021/12/08 09:33:16;;;;;;;62.05;29.30;;;;;;;0.31;93.00;99803.19;5035345;28;20044;-64
2021/12/08 09:35:47;;;;;;;60.85;29.73;;;;;;;0.37;94.29;99798.69;5052155;28;20048;-63
2021/12/08 09:38:20;;;;;;;59.83;28.45;;;;;;;0.42;93.28;99794.19;5049559;28;20128;-63
2021/12/08 09:40:54;;;;;;;64.72;28.83;;;;;;;0.49;92.58;99785.34;5052603;28;20079;-64
2021/12/08 09:43:25;;;;;;;61.22;28.52;;;;;;;0.52;92.04;99792.16;5033191;28;20058;-64
2021/12/08 09:45:57;;;;;;;61.15;28.95;;;;;;;0.51;92.13;99798.25;5054394;28;20106;-63
2021/12/08 09:48:27;;;;;;;63.75;28.35;;;;;;;0.61;91.57;99793.63;5031997;28;20602;-63
2021/12/08 09:50:56;;;;;;;62.47;27.13;;;;;;;0.66;90.40;99787.41;5052511;28;20064;-63
2021/12/08 09:53:25;;;;;;;60.17;29.42;;;;;;;0.64;90.80;99796.97;5034047;28;20061;-63
2021/12/08 09:55:52;;;;;;;60.67;28.88;;;;;;;0.65;90.38;99801.25;5053796;28;20064;-63
2021/12/08 09:58:20;;;;;;;61.25;29.25;;;;;;;0.66;90.06;99796.91;5051211;28;20053;-63
2021/12/08 10:00:49;;;;;;;57.03;27.23;;;;;;;0.65;90.32;99793.47;5049641;28;20079;-63
2021/12/08 10:03:17;;;;;;;60.40;30.65;;;;;;;0.43;91.62;99787.28;5051281;28;20872;-64
2021/12/08 10:05:44;;;;;;;68.15;30.08;;;;;;;0.62;91.41;99788.38;5048602;28;20119;-64
2021/12/08 10:08:12;;;;;;;64.95;29.75;;;;;;;0.73;91.36;99783.72;5050966;28;20749;-63
2021/12/08 10:10:41;;;;;;;61.15;28.55;;;;;;;0.68;90.53;99790.81;5032861;28;20056;-63
2021/12/08 10:13:10;;;;;;;62.58;29.27;;;;;;;0.71;90.00;99776.88;5037175;28;20052;-63
2021/12/08 10:15:38;;;;;;;61.83;28.80;;;;;;;0.82;89.91;99779.16;5032264;28;20056;-63
2021/12/08 10:18:05;;;;;;;58.33;28.63;;;;;;;0.87;89.63;99770.31;5033751;28;20218;-63
2021/12/08 10:20:48;;;;;;;65.47;31.23;;;;;;;0.94;89.54;99773.53;5031851;28;20148;-63
2021/12/08 10:23:32;;;;;;;57.78;26.33;;;;;;;1.40;94.44;99761.63;5052517;28;20108;-64
2021/12/08 10:26:05;;;;;;;64.85;30.02;;;;;;;1.63;93.79;99759.06;5034506;28;20064;-64
2021/12/08 10:28:39;;;;;;;58.10;28.98;;;;;;;1.49;88.39;99749.19;5051237;28;20052;-64
2021/12/08 10:31:17;;;;;;;63.90;30.38;;;;;;;1.39;88.06;99746.94;5028924;28;20052;-64
2021/12/08 10:34:09;;;;;;;60.20;28.52;;;;;;;1.38;86.87;99747.84;5052027;28;20045;-64
2021/12/08 10:36:49;;;;;;;60.53;30.95;;;;;;;1.51;86.46;99759.50;5054281;28;20028;-63
2021/12/08 10:39:45;;;;;;;63.38;30.17;;;;;;;1.58;85.43;99750.59;5049507;28;20061;-63
2021/12/08 10:42:34;;;;;;;57.70;29.55;;;;;;;1.57;85.23;99737.66;5054314;28;20067;-63
2021/12/08 10:45:10;;;;;;;61.17;29.35;;;;;;;1.58;85.36;99726.41;5055289;28;20180;-63
2021/12/08 10:47:44;;;;;;;54.95;28.02;;;;;;;1.69;84.99;99735.47;5058507;28;20047;-63
2021/12/08 10:56:08;;;;;;;53.90;28.20;;;;;;;1.91;83.19;99725.16;5055594;28;20076;-64
2021/12/08 10:58:43;;;;;;;58.22;27.73;;;;;;;1.94;82.91;99722.44;5035322;28;20072;-63
2021/12/08 11:01:19;;;;;;;60.57;29.23;;;;;;;2.00;82.15;99711.81;5036702;28;20167;-63
2021/12/08 11:03:48;;;;;;;61.72;28.23;;;;;;;2.17;81.78;99708.56;5036441;28;20071;-64
2021/12/08 11:06:17;;;;;;;58.22;27.75;;;;;;;2.22;81.86;99713.59;5034882;28;20053;-64
2021/12/08 11:08:54;;;;;;;60.72;27.35;;;;;;;2.20;81.22;99715.38;5054040;28;20052;-64
2021/12/08 11:11:29;;;;;;;57.53;28.50;;;;;;;2.25;81.50;99710.84;5023515;28;20045;-64
2021/12/08 11:14:01;;;;;;;55.20;28.33;;;;;;;2.17;81.48;99705.97;5062089;28;20047;-64
2021/12/08 11:16:31;;;;;;;60.75;30.45;;;;;;;2.35;81.00;99711.34;5064594;28;20980;-64
2021/12/08 11:19:05;;;;;;;54.58;26.63;;;;;;;2.57;79.85;99713.91;5049250;28;20072;-66
2021/12/08 11:21:37;;;;;;;60.85;28.23;;;;;;;2.54;79.82;99707.09;5051688;28;20043;-64
2021/12/08 11:24:31;;;;;;;57.17;26.10;;;;;;;2.54;79.36;99720.94;5059555;28;20103;-64
2021/12/08 11:26:59;;;;;;;57.72;27.80;;;;;;;2.37;79.80;99727.72;5065006;28;20103;-64
2021/12/08 11:29:29;;;;;;;60.10;27.40;;;;;;;2.15;80.38;99715.56;5050343;28;20052;-64
2021/12/08 11:31:59;;;;;;;57.55;27.27;;;;;;;1.91;81.54;99722.53;5056707;28;20052;-64
2021/12/08 11:34:29;;;;;;;52.90;26.20;;;;;;;1.68;81.97;99710.44;5065216;28;20052;-64
2021/12/08 11:37:02;;;;;;;63.30;28.13;;;;;;;1.48;83.68;99708.56;5068396;28;20048;-64
2021/12/08 11:39:38;;;;;;;58.95;28.65;;;;;;;1.34;84.38;99709.97;5066217;28;20107;-64
2021/12/08 11:42:13;;;;;;;;;;;;;;;1.33;85.16;99701.34;5052809;28;20143;-64
2021/12/08 11:44:43;;;;;;;55.88;27.45;;;;;;;1.27;85.85;99692.03;5042845;28;19926;-64
2021/12/08 11:47:21;;;;;;;54.00;26.52;;;;;;;1.14;86.36;99701.16;5068076;28;20052;-64
2021/12/08 11:49:50;;;;;;;60.35;28.42;;;;;;;1.13;86.93;99702.06;5064851;28;21038;-64
2021/12/08 11:52:23;;;;;;;62.35;28.00;;;;;;;1.15;86.54;99689.88;5068163;28;20048;-64
2021/12/08 11:55:02;;;;;;;54.88;28.25;;;;;;;1.14;86.76;99695.97;5051495;28;20166;-64
2021/12/08 11:57:39;;;;;;;59.85;28.45;;;;;;;1.16;87.25;99690.72;5051002;28;20052;-64
2021/12/08 12:00:22;;;;;;;59.85;28.35;;;;;;;1.28;87.00;99695.47;5064899;28;20056;-64
2021/12/08 12:03:00;;;;;;;59.00;28.40;;;;;;;1.24;86.23;99694.75;5060604;28;20057;-64
2021/12/08 12:05:45;;;;;;;62.88;28.80;;;;;;;1.20;86.26;99703.53;5061221;28;20730;-64
2021/12/08 12:08:18;;;;;;;59.45;27.08;;;;;;;1.20;86.63;99713.88;5066346;28;20529;-64
2021/12/08 12:10:48;;;;;;;53.90;27.50;;;;;;;1.34;86.19;99717.75;5033569;28;20072;-64
2021/12/08 12:13:16;;;;;;;56.05;26.75;;;;;;;1.46;85.78;99719.91;5064504;28;20396;-65
2021/12/08 12:15:47;;;;;;;58.15;27.50;;;;;;;1.49;85.54;99718.06;5051006;28;20088;-64
2021/12/08 12:18:20;;;;;;;62.97;29.38;;;;;;;1.58;85.25;99718.63;5047509;28;20115;-64
2021/12/08 12:21:33;;;;;;;52.67;26.65;;;;;;;1.62;84.75;99726.25;5049767;28;20056;-64
2021/12/08 12:24:10;;;;;;;60.15;28.33;;;;;;;1.67;84.65;99720.88;5036796;28;20558;-64
2021/12/08 12:27:01;;;;;;;54.08;25.30;;;;;;;1.76;84.04;99716.19;5046017;28;20139;-67